Time;durP1;ratioP1;P1;durP2;ratioP2;P2;SDS_P1;SDS_P2;PMS_P1;PMS_P2;Temp;Humidity;BMP_temperature;BMP_pressure;BME280_temperature;BME280_humidity;BME280_pressure;Samples;Min_cycle;Max_cycle;Signal;HPM_P1;HPM_P2
2023/04/29 00:00:11;;;;;;;0.80;0.80;;;;;;;13.48;58.76;99471.00;4443042;32;33703;-78
2023/04/29 00:02:43;;;;;;;1.55;1.42;;;;;;;13.72;59.13;99471.19;4430325;32;34487;-80
2023/04/29 00:05:12;;;;;;;1.60;1.50;;;;;;;14.02;58.87;99462.47;4430378;32;33341;-82
2023/04/29 00:07:42;;;;;;;1.48;0.93;;;;;;;14.17;58.34;99462.88;4434889;32;33781;-81
2023/04/29 00:10:13;;;;;;;1.45;1.10;;;;;;;14.13;57.88;99464.72;4439513;32;33641;-80
2023/04/29 00:12:44;;;;;;;2.08;1.73;;;;;;;14.20;58.08;99465.38;4435906;32;33563;-81
2023/04/29 00:15:12;;;;;;;1.40;1.30;;;;;;;14.08;58.87;99456.19;4430046;32;32660;-80
2023/04/29 00:17:41;;;;;;;1.45;1.20;;;;;;;14.36;58.29;99457.94;4430163;32;33449;-82
2023/04/29 00:20:12;;;;;;;1.02;0.98;;;;;;;14.35;58.23;99453.59;4430801;32;33577;-80
2023/04/29 00:22:40;;;;;;;1.65;1.25;;;;;;;14.46;57.90;99459.34;4435428;32;33548;-80
2023/04/29 00:25:10;;;;;;;2.47;1.33;;;;;;;14.34;57.27;99457.12;4429946;32;33341;-81
2023/04/29 00:27:39;;;;;;;0.82;0.82;;;;;;;14.38;56.60;99453.53;4436700;32;34631;-80
2023/04/29 00:30:10;;;;;;;1.08;0.93;;;;;;;14.29;57.32;99455.50;4430126;32;33958;-82
2023/04/29 00:32:39;;;;;;;;;;;;;;;14.26;57.74;99453.00;4435574;32;34389;-82
2023/04/29 00:35:09;;;;;;;1.05;0.98;;;;;;;14.24;57.93;99451.34;4433246;32;33124;-78
2023/04/29 00:37:38;;;;;;;1.33;1.23;;;;;;;14.24;57.88;99456.56;4435955;32;34444;-80
2023/04/29 00:40:08;;;;;;;1.12;0.98;;;;;;;14.34;57.09;99459.72;4429760;32;34746;-78
2023/04/29 00:42:37;;;;;;;0.87;0.83;;;;;;;14.24;58.59;99461.78;4434117;32;33024;-79
2023/04/29 00:45:11;;;;;;;0.70;0.70;;;;;;;14.19;57.78;99467.16;4435659;32;33341;-79
2023/04/29 00:47:40;;;;;;;1.17;1.08;;;;;;;14.01;58.67;99467.72;4429590;32;34226;-80
2023/04/29 00:50:12;;;;;;;0.73;0.73;;;;;;;14.01;58.49;99468.59;4431557;32;33975;-79
2023/04/29 00:52:42;;;;;;;4.68;1.02;;;;;;;13.99;58.22;99470.38;4432903;32;34540;-80
2023/04/29 00:55:12;;;;;;;0.85;0.80;;;;;;;14.28;57.51;99466.00;4435389;32;33204;-79
2023/04/29 00:57:41;;;;;;;;;;;;;;;14.27;57.72;99465.13;4430006;32;33495;-80
2023/04/29 01:00:14;;;;;;;1.98;1.87;;;;;;;13.78;59.50;99461.44;4430025;32;33544;-81
2023/04/29 01:02:44;;;;;;;1.52;1.42;;;;;;;14.20;58.26;99462.78;4429899;32;33818;-79
2023/04/29 01:05:14;;;;;;;3.45;1.08;;;;;;;14.32;58.12;99462.38;4432682;32;33333;-80
2023/04/29 01:07:48;;;;;;;3.22;1.23;;;;;;;14.28;58.22;99463.41;4435510;32;34597;-80
2023/04/29 01:10:25;;;;;;;1.40;1.27;;;;;;;14.47;57.85;99461.91;4429716;32;34726;-79
2023/04/29 01:13:00;;;;;;;1.52;1.42;;;;;;;14.32;57.85;99458.94;4436359;32;33739;-82
2023/04/29 01:15:35;;;;;;;1.87;1.00;;;;;;;14.37;57.78;99460.47;4430096;32;33851;-81
2023/04/29 01:18:07;;;;;;;1.20;1.10;;;;;;;14.24;58.80;99465.25;4430115;32;34330;-80
2023/04/29 01:20:38;;;;;;;0.85;0.85;;;;;;;14.29;58.71;99457.28;4446426;32;33334;-80
2023/04/29 01:23:07;;;;;;;0.88;0.88;;;;;;;13.86;61.04;99454.22;4437269;32;35066;-81
2023/04/29 01:25:38;;;;;;;2.30;1.05;;;;;;;13.80;61.08;99454.44;4434983;32;33665;-81
2023/04/29 01:28:14;;;;;;;0.80;0.80;;;;;;;13.60;61.53;99452.44;4430053;32;33483;-80
2023/04/29 01:30:47;;;;;;;1.02;0.95;;;;;;;13.91;59.92;99454.09;4435531;32;33968;-80
2023/04/29 01:33:22;;;;;;;1.42;1.33;;;;;;;13.85;59.95;99457.75;4431570;32;33354;-81
2023/04/29 01:36:00;;;;;;;1.08;1.00;;;;;;;13.70;59.60;99450.41;4429899;32;33357;-79
2023/04/29 01:38:34;;;;;;;0.77;0.73;;;;;;;14.06;58.76;99453.66;4439845;32;33377;-81
2023/04/29 01:41:10;;;;;;;1.10;1.00;;;;;;;13.83;58.42;99441.31;4435110;32;33481;-81
2023/04/29 01:43:39;;;;;;;1.23;1.12;;;;;;;13.68;58.85;99438.31;4435259;32;33896;-81
2023/04/29 01:46:10;;;;;;;1.02;0.90;;;;;;;13.82;58.60;99442.22;4432848;32;34008;-78
2023/04/29 01:48:39;;;;;;;3.58;1.27;;;;;;;13.74;59.21;99448.53;4435334;32;33502;-82
2023/04/29 01:51:08;;;;;;;1.23;1.17;;;;;;;13.72;58.05;99439.91;4429011;32;34379;-79
2023/04/29 01:53:39;;;;;;;1.60;1.50;;;;;;;13.69;57.42;99437.41;4440156;32;34628;-79
2023/04/29 01:56:09;;;;;;;;;;;;;;;13.23;58.08;99439.56;4450729;32;33102;-79
2023/04/29 01:58:40;;;;;;;2.15;1.95;;;;;;;13.71;56.81;99441.66;4445395;32;33200;-80
2023/04/29 02:01:10;;;;;;;1.70;0.70;;;;;;;13.42;55.79;99439.94;4445891;32;33818;-78
2023/04/29 02:03:40;;;;;;;1.60;1.25;;;;;;;13.50;56.59;99437.94;4445207;32;34582;-79
2023/04/29 02:06:09;;;;;;;1.20;1.08;;;;;;;13.83;55.69;99435.25;4440237;32;35427;-78
2023/04/29 02:08:39;;;;;;;1.15;1.05;;;;;;;13.82;55.38;99439.59;4430298;32;33996;-78
2023/04/29 02:11:09;;;;;;;1.25;1.15;;;;;;;13.83;54.83;99443.91;4433003;32;34917;-81
2023/04/29 02:13:38;;;;;;;1.20;1.10;;;;;;;13.50;56.05;99448.34;4445584;32;32971;-81
2023/04/29 02:16:10;;;;;;;1.60;1.50;;;;;;;13.28;57.35;99445.53;4445434;32;34207;-81
2023/04/29 02:18:39;;;;;;;1.25;1.20;;;;;;;13.50;56.59;99442.31;4443751;32;34198;-79
2023/04/29 02:21:08;;;;;;;0.80;0.80;;;;;;;13.50;56.27;99437.94;4433589;32;33698;-79
2023/04/29 02:23:37;;;;;;;0.90;0.90;;;;;;;13.49;56.75;99441.44;4437973;32;34177;-80
2023/04/29 02:26:08;;;;;;;1.20;1.00;;;;;;;13.26;56.85;99444.66;4442415;32;32986;-79
2023/04/29 02:28:38;;;;;;;2.45;2.20;;;;;;;13.33;56.14;99437.56;4446943;32;33684;-81
2023/04/29 02:31:07;;;;;;;2.53;2.33;;;;;;;12.93;56.25;99433.47;4445290;32;33168;-79
2023/04/29 02:33:36;;;;;;;1.83;1.73;;;;;;;13.31;55.70;99434.16;4444909;32;33624;-80
2023/04/29 02:36:06;;;;;;;1.52;1.42;;;;;;;13.38;55.45;99430.47;4445409;32;33300;-80
2023/04/29 02:38:34;;;;;;;0.85;0.85;;;;;;;13.13;55.80;99425.94;4446087;32;34691;-81
2023/04/29 02:41:04;;;;;;;2.12;1.77;;;;;;;13.19;55.46;99425.78;4450753;32;33640;-81
2023/04/29 02:43:33;;;;;;;2.40;1.65;;;;;;;13.06;55.21;99419.19;4443041;32;34617;-79
2023/04/29 02:46:03;;;;;;;1.65;1.55;;;;;;;13.22;54.94;99419.63;4445195;32;33796;-79
2023/04/29 02:48:38;;;;;;;2.47;2.28;;;;;;;13.01;55.15;99418.47;4445424;32;33516;-80
2023/04/29 02:51:08;;;;;;;1.90;1.62;;;;;;;13.05;55.47;99414.87;4450810;32;33472;-79
2023/04/29 02:53:37;;;;;;;2.92;2.65;;;;;;;12.88;55.20;99419.69;4444423;32;33737;-80
2023/04/29 02:56:06;;;;;;;1.80;1.52;;;;;;;12.90;55.28;99421.37;4444658;32;33384;-81
2023/04/29 02:58:35;;;;;;;1.45;1.05;;;;;;;12.73;56.37;99416.63;4444947;32;33872;-81
2023/04/29 03:01:06;;;;;;;1.27;1.02;;;;;;;12.77;56.41;99419.97;4435815;32;33712;-81
2023/04/29 03:03:35;;;;;;;2.90;1.80;;;;;;;12.88;56.60;99420.56;4435244;32;34518;-80
2023/04/29 03:06:04;;;;;;;1.65;1.27;;;;;;;12.32;58.47;99428.94;4429581;32;33269;-79
2023/04/29 03:08:32;;;;;;;1.70;1.60;;;;;;;12.75;58.00;99427.81;4430140;32;34559;-81
2023/04/29 03:11:03;;;;;;;1.10;1.00;;;;;;;12.84;58.27;99428.50;4431739;32;34361;-79
2023/04/29 03:13:32;;;;;;;1.42;1.33;;;;;;;12.91;58.21;99428.28;4450238;32;33546;-80
2023/04/29 03:16:01;;;;;;;1.30;1.12;;;;;;;12.98;58.26;99423.75;4444749;32;33029;-80
2023/04/29 03:18:31;;;;;;;1.70;1.60;;;;;;;13.04;58.48;99418.38;4432726;32;34660;-79
2023/04/29 03:21:00;;;;;;;0.82;0.82;;;;;;;12.91;58.88;99428.28;4428933;32;33630;-80
2023/04/29 03:23:28;;;;;;;1.25;0.68;;;;;;;13.37;57.43;99429.63;4434167;32;34537;-81
2023/04/29 03:25:58;;;;;;;1.10;1.10;;;;;;;12.66;57.89;99430.69;4448983;32;33256;-80
2023/04/29 03:28:30;;;;;;;1.20;1.10;;;;;;;13.28;56.30;99423.84;4442044;32;33807;-79
2023/04/29 03:30:59;;;;;;;2.80;1.95;;;;;;;13.63;54.80;99428.87;4435206;32;34139;-80
2023/04/29 03:33:28;;;;;;;1.55;1.30;;;;;;;13.36;56.25;99421.84;4435826;32;33986;-79
2023/04/29 03:35:58;;;;;;;3.03;2.12;;;;;;;13.42;56.15;99430.34;4446231;32;33103;-79
2023/04/29 03:38:27;;;;;;;1.62;1.52;;;;;;;13.78;55.07;99426.72;4437598;32;34305;-80
2023/04/29 03:40:56;;;;;;;1.35;1.25;;;;;;;13.71;55.30;99423.44;4428914;32;34094;-79
2023/04/29 03:43:25;;;;;;;1.77;1.67;;;;;;;13.88;54.93;99430.72;4441571;32;33900;-81
2023/04/29 03:45:54;;;;;;;0.62;0.62;;;;;;;13.65;55.07;99439.22;4441261;32;33398;-81
2023/04/29 03:48:23;;;;;;;1.15;1.10;;;;;;;13.59;55.25;99440.28;4443086;32;33453;-81
2023/04/29 03:50:52;;;;;;;1.00;1.00;;;;;;;13.91;54.27;99448.88;4444967;32;34470;-81
2023/04/29 03:53:24;;;;;;;1.08;1.08;;;;;;;13.54;55.49;99450.00;4439446;32;33930;-80
2023/04/29 03:55:54;;;;;;;1.83;1.73;;;;;;;13.79;54.99;99451.87;4434878;32;33377;-81
2023/04/29 03:58:23;;;;;;;1.65;1.55;;;;;;;13.44;55.56;99464.19;4442990;32;33677;-81
2023/04/29 04:00:52;;;;;;;1.98;1.55;;;;;;;13.13;55.24;99458.94;4436989;32;34014;-80
2023/04/29 04:03:22;;;;;;;1.02;1.02;;;;;;;13.18;55.57;99463.12;4441236;32;33946;-80
2023/04/29 04:05:51;;;;;;;1.23;1.17;;;;;;;13.13;55.32;99457.19;4431061;32;32858;-81
2023/04/29 04:08:20;;;;;;;2.05;1.10;;;;;;;12.97;55.66;99456.72;4441842;32;33837;-81
2023/04/29 04:10:51;;;;;;;1.85;1.67;;;;;;;13.16;55.33;99456.25;4449203;32;34503;-79
2023/04/29 04:13:20;;;;;;;1.23;1.12;;;;;;;13.21;55.43;99455.22;4446502;32;33065;-80
2023/04/29 04:15:50;;;;;;;1.25;1.10;;;;;;;13.28;55.50;99455.94;4446059;32;33285;-79
2023/04/29 04:18:21;;;;;;;1.35;1.12;;;;;;;13.40;55.69;99450.38;4445763;32;34017;-81
2023/04/29 04:20:50;;;;;;;0.80;0.80;;;;;;;13.22;55.64;99461.31;4440192;32;101963;-82
2023/04/29 04:23:19;;;;;;;4.28;0.93;;;;;;;13.36;56.00;99458.31;4431263;32;34680;-82
2023/04/29 04:25:48;;;;;;;1.33;1.23;;;;;;;13.26;56.28;99462.91;4437794;32;33197;-80
2023/04/29 04:28:19;;;;;;;0.82;0.82;;;;;;;13.51;55.84;99452.69;4446278;32;33284;-80
2023/04/29 04:30:49;;;;;;;2.62;1.58;;;;;;;13.69;55.45;99461.72;4451856;32;34363;-81
2023/04/29 04:33:18;;;;;;;1.48;1.10;;;;;;;13.48;56.12;99465.78;4446019;32;34102;-81
2023/04/29 04:35:47;;;;;;;1.20;1.10;;;;;;;13.12;56.41;99463.31;4446448;32;33858;-81
2023/04/29 04:38:16;;;;;;;1.75;1.65;;;;;;;13.22;55.86;99462.16;4446138;32;34614;-81
2023/04/29 04:40:45;;;;;;;1.00;1.00;;;;;;;13.14;56.49;99468.44;4446023;32;34776;-80
2023/04/29 04:43:19;;;;;;;1.42;0.93;;;;;;;13.42;55.58;99465.97;4441550;32;33219;-82
2023/04/29 04:45:48;;;;;;;2.37;1.70;;;;;;;13.25;56.63;99461.22;4430989;32;33100;-81
2023/04/29 04:48:17;;;;;;;1.73;1.08;;;;;;;13.52;55.93;99469.19;4430698;32;33930;-81
2023/04/29 04:50:46;;;;;;;1.77;1.67;;;;;;;13.15;57.63;99464.97;4430837;32;33568;-82
2023/04/29 04:53:17;;;;;;;0.80;0.80;;;;;;;13.61;56.20;99461.09;4440992;32;34377;-81
2023/04/29 04:55:48;;;;;;;1.40;1.10;;;;;;;13.50;56.37;99456.19;4446334;32;33593;-81
2023/04/29 04:58:19;;;;;;;0.90;0.88;;;;;;;13.50;57.43;99453.56;4429512;32;34184;-79
2023/04/29 05:00:48;;;;;;;0.70;0.70;;;;;;;13.58;57.85;99449.00;4435272;32;33739;-80
2023/04/29 05:03:20;;;;;;;0.98;0.98;;;;;;;13.66;58.14;99443.56;4445003;32;34144;-79
2023/04/29 05:05:53;;;;;;;2.22;2.12;;;;;;;14.00;57.43;99448.59;4451227;32;33382;-80
2023/04/29 05:08:25;;;;;;;0.65;0.65;;;;;;;13.96;56.76;99452.19;4445767;32;34372;-80
2023/04/29 05:10:54;;;;;;;0.70;0.70;;;;;;;13.98;55.64;99446.94;4445192;32;34610;-80
2023/04/29 05:13:25;;;;;;;1.15;1.05;;;;;;;13.74;55.60;99444.19;4433952;32;33428;-81
2023/04/29 05:15:55;;;;;;;2.67;1.70;;;;;;;13.26;55.63;99444.66;4448070;32;32954;-81
2023/04/29 05:18:24;;;;;;;0.65;0.65;;;;;;;13.39;54.95;99448.69;4437954;32;33863;-82
2023/04/29 05:20:53;;;;;;;1.50;1.40;;;;;;;13.14;55.07;99447.63;4445722;32;33646;-82
2023/04/29 05:23:22;;;;;;;6.80;1.45;;;;;;;13.02;55.87;99454.00;4440234;32;33696;-80
2023/04/29 05:28:46;;;;;;;1.48;0.88;;;;;;;13.04;56.62;99457.44;4447184;32;33514;-81
2023/04/29 05:31:15;;;;;;;0.93;0.85;;;;;;;13.16;56.80;99453.66;4448746;32;33757;-80
2023/04/29 05:33:44;;;;;;;2.12;1.40;;;;;;;13.36;56.50;99459.19;4438891;32;33860;-81
2023/04/29 05:36:13;;;;;;;1.00;1.00;;;;;;;13.48;56.14;99465.78;4430446;32;32925;-80
2023/04/29 05:38:44;;;;;;;0.73;0.73;;;;;;;13.35;57.24;99460.09;4430202;32;33490;-82
2023/04/29 05:41:13;;;;;;;1.00;0.90;;;;;;;13.65;56.75;99466.19;4435943;32;34264;-81
2023/04/29 05:43:42;;;;;;;0.90;0.90;;;;;;;13.72;56.54;99465.97;4430229;32;33900;-80
2023/04/29 05:46:15;;;;;;;;;;;;;;;13.62;57.15;99473.22;4430524;32;33338;-81
2023/04/29 05:48:44;;;;;;;0.73;0.73;;;;;;;13.15;56.93;99465.81;4431528;32;33381;-81
2023/04/29 05:51:13;;;;;;;1.15;1.08;;;;;;;13.80;55.09;99464.88;4436110;32;33919;-80
2023/04/29 05:53:42;;;;;;;0.80;0.80;;;;;;;13.76;55.30;99463.25;4437732;32;33848;-80
2023/04/29 05:56:11;;;;;;;0.60;0.60;;;;;;;13.57;55.67;99462.91;4445807;32;33040;-81
2023/04/29 05:58:42;;;;;;;0.60;0.60;;;;;;;13.13;55.88;99475.41;4445266;32;33934;-80
2023/04/29 06:01:11;;;;;;;0.57;0.57;;;;;;;13.83;54.13;99479.56;4445364;32;34280;-82
2023/04/29 06:03:41;;;;;;;1.30;1.00;;;;;;;13.66;54.32;99482.66;4451051;32;34471;-82
2023/04/29 06:06:11;;;;;;;;;;;;;;;14.01;52.53;99480.75;4437329;32;33363;-80
2023/04/29 06:08:40;;;;;;;0.90;0.90;;;;;;;13.94;53.69;99481.84;4433423;32;34232;-82
2023/04/29 06:11:11;;;;;;;1.93;1.83;;;;;;;14.29;52.25;99478.16;4445664;32;33146;-79
2023/04/29 06:13:40;;;;;;;0.93;0.93;;;;;;;14.32;52.09;99472.81;4439651;32;32854;-81
2023/04/29 06:16:10;;;;;;;0.52;0.52;;;;;;;14.64;52.34;99474.44;4434719;32;34270;-82
2023/04/29 06:18:39;;;;;;;1.70;1.60;;;;;;;14.64;51.05;99468.34;4445442;32;33606;-80
2023/04/29 06:21:09;;;;;;;0.82;0.82;;;;;;;14.68;51.25;99469.94;4445167;32;35264;-81
2023/04/29 06:23:38;;;;;;;1.17;1.07;;;;;;;14.63;50.39;99470.09;4428397;32;33314;-80
2023/04/29 06:26:07;;;;;;;0.70;0.70;;;;;;;15.01;49.60;99461.88;4434469;32;34113;-82
2023/04/29 06:28:36;;;;;;;0.57;0.57;;;;;;;14.96;50.27;99467.25;4431914;32;34256;-80
2023/04/29 06:31:05;;;;;;;0.75;0.75;;;;;;;14.98;49.18;99461.97;4432245;32;32542;-82
2023/04/29 06:33:35;;;;;;;0.50;0.50;;;;;;;15.26;48.88;99470.53;4429285;32;33506;-82
2023/04/29 06:36:04;;;;;;;0.50;0.50;;;;;;;15.14;49.46;99476.19;4435315;32;34151;-82
2023/04/29 06:38:35;;;;;;;0.52;0.52;;;;;;;15.05;47.74;99466.94;4431792;32;33949;-81
2023/04/29 06:41:04;;;;;;;1.62;1.55;;;;;;;15.00;48.49;99468.84;4440255;32;33147;-82
2023/04/29 06:43:34;;;;;;;0.60;0.60;;;;;;;15.22;48.32;99473.31;4441171;32;33204;-80
2023/04/29 06:46:07;;;;;;;0.68;0.68;;;;;;;15.44;48.60;99470.78;4437204;32;32753;-80
2023/04/29 06:48:36;;;;;;;0.68;0.68;;;;;;;15.27;50.12;99469.66;4450426;32;33642;-81
2023/04/29 06:51:05;;;;;;;0.50;0.50;;;;;;;15.41;49.36;99465.66;4429789;32;34493;-81
2023/04/29 06:53:37;;;;;;;;;;;;;;;14.96;50.90;99479.47;4437361;32;34417;-81
2023/04/29 06:56:07;;;;;;;1.25;1.20;;;;;;;15.10;51.26;99466.75;4428849;32;33153;-82
2023/04/29 06:58:36;;;;;;;0.70;0.70;;;;;;;15.00;50.62;99473.22;4434287;32;35778;-82
2023/04/29 07:01:06;;;;;;;0.70;0.70;;;;;;;15.08;49.66;99472.06;4429444;32;33614;-82
2023/04/29 07:03:34;;;;;;;0.90;0.90;;;;;;;14.90;50.26;99477.91;4429248;32;34134;-82
2023/04/29 07:06:04;;;;;;;0.50;0.50;;;;;;;15.05;50.04;99489.56;4429316;32;33754;-81
2023/04/29 07:08:33;;;;;;;0.60;0.60;;;;;;;15.12;49.69;99472.78;4430073;32;33656;-81
2023/04/29 07:11:03;;;;;;;0.50;0.50;;;;;;;15.16;49.96;99474.38;4436905;32;33851;-81
2023/04/29 07:13:32;;;;;;;0.60;0.60;;;;;;;15.48;48.85;99477.59;4444694;32;32984;-82
2023/04/29 07:16:01;;;;;;;0.80;0.80;;;;;;;15.50;48.90;99486.25;4436274;32;33223;-81
2023/04/29 07:18:29;;;;;;;0.60;0.60;;;;;;;15.50;49.52;99479.25;4429358;32;33395;-82
2023/04/29 07:21:01;;;;;;;0.70;0.70;;;;;;;15.32;49.79;99483.41;4434625;32;33617;-81
2023/04/29 07:23:30;;;;;;;0.88;0.88;;;;;;;15.05;50.56;99482.63;4437378;32;33839;-81
2023/04/29 07:25:59;;;;;;;0.40;0.40;;;;;;;15.46;49.69;99485.50;4446521;32;34187;-82
2023/04/29 07:28:29;;;;;;;0.50;0.50;;;;;;;15.63;50.02;99474.41;4442913;32;33939;-82
2023/04/29 07:30:58;;;;;;;1.67;1.58;;;;;;;15.24;49.56;99479.34;4439903;32;33313;-81
2023/04/29 07:33:27;;;;;;;0.70;0.70;;;;;;;15.32;48.20;99472.94;4441929;32;33501;-81
2023/04/29 07:35:56;;;;;;;0.70;0.70;;;;;;;15.96;47.59;99472.31;4430727;32;34088;-83
2023/04/29 07:38:25;;;;;;;0.75;0.75;;;;;;;16.25;48.30;99474.72;4431860;32;34594;-83
2023/04/29 07:40:54;;;;;;;0.50;0.50;;;;;;;16.38;48.63;99475.91;4437267;32;33740;-82
2023/04/29 07:43:23;;;;;;;0.50;0.50;;;;;;;16.33;46.94;99475.25;4441510;32;33484;-81
2023/04/29 07:45:53;;;;;;;0.50;0.50;;;;;;;16.37;46.37;99468.97;4434711;32;33220;-81
2023/04/29 07:48:22;;;;;;;0.40;0.40;;;;;;;16.79;45.73;99465.53;4430708;32;33233;-82
2023/04/29 07:50:51;;;;;;;0.40;0.40;;;;;;;16.88;44.90;99473.00;4430303;32;34548;-82
2023/04/29 07:53:20;;;;;;;2.15;1.85;;;;;;;16.82;45.25;99481.97;4435187;32;34590;-82
2023/04/29 07:55:51;;;;;;;0.88;0.82;;;;;;;16.92;46.10;99482.44;4437744;32;33284;-82
2023/04/29 07:58:20;;;;;;;0.40;0.40;;;;;;;17.02;45.83;99482.91;4435002;32;34208;-81
2023/04/29 08:00:49;;;;;;;0.52;0.52;;;;;;;17.50;44.78;99489.53;4434760;32;33339;-82
2023/04/29 08:03:19;;;;;;;0.40;0.40;;;;;;;17.71;42.95;99482.47;4434348;32;33619;-82
2023/04/29 08:05:50;;;;;;;1.17;1.07;;;;;;;17.68;43.31;99493.91;4443564;32;32889;-82
2023/04/29 08:08:19;;;;;;;0.50;0.50;;;;;;;17.96;42.75;99489.22;4432430;32;34027;-82
2023/04/29 08:10:47;;;;;;;0.62;0.62;;;;;;;17.86;42.72;99486.19;4434728;32;34555;-82
2023/04/29 08:13:16;;;;;;;1.40;1.30;;;;;;;17.78;43.11;99496.97;4427288;32;34302;-82
2023/04/29 08:15:45;;;;;;;0.40;0.40;;;;;;;18.00;41.83;99490.78;4441351;32;34047;-82
2023/04/29 08:18:16;;;;;;;0.40;0.40;;;;;;;17.75;42.40;99489.25;4430981;32;33704;-82
2023/04/29 08:20:48;;;;;;;0.65;0.65;;;;;;;18.17;43.28;99493.47;4434178;32;34800;-81
2023/04/29 08:23:17;;;;;;;0.30;0.30;;;;;;;18.26;41.48;99489.53;4432209;32;33862;-81
2023/04/29 08:25:46;;;;;;;0.68;0.68;;;;;;;18.16;41.02;99491.75;4438929;32;33225;-82
2023/04/29 08:28:15;;;;;;;0.40;0.40;;;;;;;18.37;40.51;99486.41;4437588;32;33954;-82
2023/04/29 08:30:44;;;;;;;0.88;0.88;;;;;;;18.18;40.73;99483.81;4442360;32;34754;-82
2023/04/29 08:33:13;;;;;;;0.60;0.60;;;;;;;17.67;41.79;99479.12;4430798;32;33538;-83
2023/04/29 08:35:42;;;;;;;0.82;0.82;;;;;;;18.39;40.78;99484.53;4444793;32;34007;-80
2023/04/29 08:38:12;;;;;;;0.50;0.50;;;;;;;18.44;40.21;99479.94;4451857;32;34241;-81
2023/04/29 08:40:44;;;;;;;0.37;0.37;;;;;;;18.76;41.05;99478.34;4439260;32;35983;-82
2023/04/29 08:43:14;;;;;;;0.40;0.40;;;;;;;18.75;39.56;99479.28;4430688;32;33619;-83
2023/04/29 08:45:43;;;;;;;0.68;0.68;;;;;;;18.74;39.60;99478.41;4430713;32;33307;-82
2023/04/29 08:48:12;;;;;;;0.35;0.35;;;;;;;18.83;38.45;99484.16;4458102;32;34227;-82
2023/04/29 08:50:42;;;;;;;0.50;0.50;;;;;;;19.05;39.43;99484.75;4467236;32;34208;-82
2023/04/29 08:53:13;;;;;;;0.32;0.32;;;;;;;19.05;38.06;99484.75;4439765;32;34327;-82
2023/04/29 08:55:43;;;;;;;1.83;1.70;;;;;;;19.24;38.51;99487.28;4430573;32;33185;-82
2023/04/29 08:58:12;;;;;;;0.60;0.60;;;;;;;19.46;38.22;99494.91;4439860;32;33815;-82
2023/04/29 09:00:43;;;;;;;0.30;0.30;;;;;;;19.22;37.77;99502.31;4451562;32;34767;-83
2023/04/29 09:03:17;;;;;;;0.75;0.75;;;;;;;19.12;38.29;99495.81;4445835;32;34267;-81
2023/04/29 09:05:53;;;;;;;0.40;0.40;;;;;;;19.24;38.65;99500.44;4446223;32;33027;-82
2023/04/29 09:08:27;;;;;;;0.30;0.30;;;;;;;19.57;38.58;99496.94;4445452;32;33446;-84
2023/04/29 09:10:56;;;;;;;0.62;0.57;;;;;;;19.69;38.14;99501.62;4433671;32;33034;-82
2023/04/29 09:13:25;;;;;;;0.30;0.30;;;;;;;19.69;37.44;99500.75;4450467;32;33892;-82
2023/04/29 09:15:54;;;;;;;0.55;0.55;;;;;;;19.52;37.71;99498.97;4432264;32;33974;-82
2023/04/29 09:18:42;;;;;;;0.90;0.88;;;;;;;19.64;37.05;99503.59;4432822;32;34249;-82
2023/04/29 09:21:16;;;;;;;0.60;0.60;;;;;;;19.60;36.83;99492.41;4429708;32;34379;-82
2023/04/29 09:23:50;;;;;;;0.43;0.40;;;;;;;19.34;37.48;99493.78;4430998;32;33510;-81
2023/04/29 09:26:19;;;;;;;0.30;0.30;;;;;;;19.49;36.80;99497.37;4446146;32;33184;-83
2023/04/29 09:29:06;;;;;;;0.30;0.30;;;;;;;19.69;37.05;99498.13;4439064;32;33877;-82
2023/04/29 09:31:35;;;;;;;0.30;0.30;;;;;;;19.36;36.90;99498.97;4438643;32;35222;-81
2023/04/29 09:34:04;;;;;;;0.30;0.30;;;;;;;19.35;37.61;99502.50;4433414;32;33785;-82
2023/04/29 09:36:40;;;;;;;0.35;0.35;;;;;;;19.77;36.99;99495.94;4446141;32;32845;-81
2023/04/29 09:39:12;;;;;;;0.80;0.80;;;;;;;19.00;36.10;99504.34;4441669;32;34276;-82
2023/04/29 09:41:43;;;;;;;0.93;0.82;;;;;;;19.69;35.43;99498.13;4430462;32;33781;-82
2023/04/29 09:44:12;;;;;;;0.30;0.30;;;;;;;19.76;35.38;99494.22;4429969;32;33673;-82
2023/04/29 09:46:41;;;;;;;0.57;0.57;;;;;;;19.51;34.97;99492.88;4437890;32;33015;-82
2023/04/29 09:49:23;;;;;;;0.40;0.40;;;;;;;19.73;36.45;99494.41;4440856;32;34694;-82
2023/04/29 09:51:53;;;;;;;0.47;0.47;;;;;;;20.00;35.95;99498.13;4440445;32;33403;-81
2023/04/29 09:54:27;;;;;;;1.10;0.73;;;;;;;20.27;34.88;99494.06;4441461;32;34245;-81
2023/04/29 09:56:57;;;;;;;0.37;0.37;;;;;;;20.13;34.31;99484.31;4446035;32;33279;-82
2023/04/29 09:59:26;;;;;;;0.40;0.40;;;;;;;20.29;34.95;99487.78;4436466;32;33638;-82
2023/04/29 10:01:56;;;;;;;0.50;0.50;;;;;;;20.06;33.88;99489.06;4432112;32;33735;-81
2023/04/29 10:04:28;;;;;;;0.32;0.32;;;;;;;19.92;34.82;99487.19;4430908;32;33495;-82
2023/04/29 10:06:57;;;;;;;0.57;0.52;;;;;;;19.54;34.70;99482.19;4427148;32;34186;-82
2023/04/29 10:09:28;;;;;;;0.50;0.37;;;;;;;20.23;34.32;99480.22;4428852;32;34041;-82
2023/04/29 10:11:56;;;;;;;0.62;0.62;;;;;;;20.55;34.33;99490.72;4438770;32;33893;-81
2023/04/29 10:14:27;;;;;;;1.35;1.05;;;;;;;21.00;34.52;99491.66;4450169;32;34485;-82
2023/04/29 10:17:00;;;;;;;0.50;0.50;;;;;;;20.36;32.30;99485.66;4435822;32;33356;-82
2023/04/29 10:19:35;;;;;;;0.20;0.20;;;;;;;20.52;32.40;99483.84;4438082;32;33834;-82
2023/04/29 10:22:12;;;;;;;1.02;0.62;;;;;;;20.38;33.63;99484.63;4442672;32;33994;-81
2023/04/29 10:24:42;;;;;;;0.30;0.30;;;;;;;20.44;32.33;99475.50;4443848;32;34584;-83
2023/04/29 10:27:12;;;;;;;0.30;0.30;;;;;;;20.60;31.26;99479.00;4442632;32;33993;-83
2023/04/29 10:29:43;;;;;;;0.37;0.37;;;;;;;20.79;31.09;99477.94;4438977;32;34441;-81
2023/04/29 10:32:14;;;;;;;0.47;0.40;;;;;;;20.96;31.63;99480.41;4440562;32;34711;-82
2023/04/29 10:34:43;;;;;;;0.62;0.62;;;;;;;20.14;32.65;99478.94;4429933;32;33920;-81
2023/04/29 10:37:12;;;;;;;0.43;0.43;;;;;;;20.33;34.75;99475.28;4434817;32;33373;-83
2023/04/29 10:39:49;;;;;;;0.20;0.20;;;;;;;20.82;34.62;99461.91;4428972;32;33254;-81
2023/04/29 10:42:22;;;;;;;0.30;0.30;;;;;;;20.81;32.28;99460.25;4429078;32;34643;-82
2023/04/29 10:45:22;;;;;;;0.20;0.20;;;;;;;21.07;31.76;99462.16;4428441;32;34132;-81
2023/04/29 10:48:11;;;;;;;0.28;0.28;;;;;;;21.23;31.70;99446.25;4429781;32;34000;-81
2023/04/29 10:51:00;;;;;;;0.50;0.50;;;;;;;21.37;32.35;99442.75;4429125;32;33491;-82
2023/04/29 10:53:29;;;;;;;0.22;0.22;;;;;;;21.76;33.03;99435.13;4434584;32;34878;-83
2023/04/29 10:56:10;;;;;;;0.22;0.22;;;;;;;21.81;32.16;99430.37;4431968;32;34350;-81
2023/04/29 10:58:43;;;;;;;;;;;;;;;21.29;31.43;99434.50;4434357;32;34245;-81
2023/04/29 11:01:13;;;;;;;0.22;0.22;;;;;;;21.35;32.19;99431.44;4431374;32;33869;-82
2023/04/29 11:03:53;;;;;;;0.30;0.30;;;;;;;20.93;32.77;99432.31;4430399;32;33300;-82
2023/04/29 11:06:24;;;;;;;0.30;0.30;;;;;;;20.63;33.27;99415.59;4436830;32;33515;-81
2023/04/29 11:09:03;;;;;;;0.80;0.80;;;;;;;21.33;32.30;99411.38;4436457;32;33335;-81
2023/04/29 11:11:48;;;;;;;0.25;0.25;;;;;;;22.12;33.95;99411.63;4436949;32;33135;-81
2023/04/29 11:14:22;;;;;;;1.48;0.70;;;;;;;22.17;31.54;99412.16;4446511;32;34052;-82
2023/04/29 11:16:53;;;;;;;0.20;0.20;;;;;;;22.66;32.64;99412.50;4446674;32;33610;-81
2023/04/29 11:19:24;;;;;;;0.30;0.30;;;;;;;22.51;30.10;99407.31;4437474;32;33422;-81
2023/04/29 11:22:11;;;;;;;1.10;0.98;;;;;;;22.92;29.90;99402.81;4447366;32;33972;-82
2023/04/29 11:24:50;;;;;;;0.40;0.40;;;;;;;22.95;29.95;99405.22;4439009;32;33818;-81
2023/04/29 11:27:24;;;;;;;0.25;0.25;;;;;;;22.87;31.60;99405.75;4431424;32;33805;-83
2023/04/29 11:29:58;;;;;;;0.68;0.68;;;;;;;22.53;31.98;99407.22;4442600;32;33907;-83
2023/04/29 11:32:27;;;;;;;0.20;0.20;;;;;;;22.49;32.75;99411.84;4445902;32;33468;-82
2023/04/29 11:35:07;;;;;;;0.37;0.37;;;;;;;22.62;31.32;99406.59;4439075;32;33618;-82
2023/04/29 11:37:37;;;;;;;0.30;0.30;;;;;;;22.42;31.20;99401.78;4436921;32;33630;-82
2023/04/29 11:40:07;;;;;;;0.37;0.35;;;;;;;22.72;30.40;99401.53;4440150;32;33352;-82
2023/04/29 11:42:41;;;;;;;0.50;0.50;;;;;;;22.98;32.26;99405.91;4438640;32;33163;-82
2023/04/29 11:45:11;;;;;;;0.45;0.37;;;;;;;22.68;32.50;99394.75;4444428;32;34542;-82
2023/04/29 11:47:43;;;;;;;2.40;0.77;;;;;;;23.06;31.19;99396.59;4441480;32;33007;-82
2023/04/29 11:50:15;;;;;;;0.20;0.20;;;;;;;21.81;32.23;99399.53;4445120;32;33180;-82
2023/04/29 11:52:50;;;;;;;0.40;0.35;;;;;;;21.86;31.17;99396.63;4430418;32;34312;-81